createdAt,value
2018-08-19T00:02:22.999Z,101900.92
2018-08-19T00:05:07.190Z,101896.27
2018-08-19T00:07:36.520Z,101902.09
2018-08-19T00:10:06.749Z,101903.84
2018-08-19T00:12:40.827Z,101902.42
2018-08-19T00:15:10.154Z,101900.53
2018-08-19T00:17:39.547Z,101895.08
2018-08-19T00:20:12.003Z,101899.38
2018-08-19T00:22:41.370Z,101892.00
2018-08-19T00:25:16.598Z,101894.36
2018-08-19T00:27:46.055Z,101896.45
2018-08-19T00:30:15.374Z,101898.00
2018-08-19T00:32:44.768Z,101898.16
2018-08-19T00:35:14.105Z,101906.04
2018-08-19T00:37:43.491Z,101902.26
2018-08-19T00:40:12.834Z,101901.71
2018-08-19T00:42:44.741Z,101900.11
2018-08-19T00:45:15.273Z,101899.69
2018-08-19T00:47:44.626Z,101905.19
2018-08-19T00:50:13.923Z,101910.33
2018-08-19T00:52:44.141Z,101911.52
2018-08-19T00:55:13.404Z,101907.36
2018-08-19T00:57:45.070Z,101915.83
2018-08-19T01:00:14.375Z,101908.52
2018-08-19T01:02:43.662Z,101911.11
2018-08-19T01:05:12.958Z,101911.92
2018-08-19T01:07:42.279Z,101907.56
2018-08-19T01:10:11.623Z,101907.27
2018-08-19T01:12:41.166Z,101914.17
2018-08-19T01:15:13.107Z,101909.06
2018-08-19T01:17:44.355Z,101908.21
2018-08-19T01:20:21.063Z,101910.17
2018-08-19T01:22:50.433Z,101912.06
2018-08-19T01:25:19.753Z,101910.04
2018-08-19T01:27:49.045Z,101912.03
2018-08-19T01:30:21.191Z,101913.46
2018-08-19T01:32:50.509Z,101911.36
2018-08-19T01:35:27.050Z,101918.46
2018-08-19T01:37:56.443Z,101912.69
2018-08-19T01:40:25.742Z,101919.62
2018-08-19T01:42:55.051Z,101916.44
2018-08-19T01:45:24.354Z,101914.11
2018-08-19T01:47:53.633Z,101914.83
2018-08-19T01:50:23.567Z,101919.01
2018-08-19T01:52:53.170Z,101912.13
2018-08-19T01:55:22.447Z,101915.80
2018-08-19T01:57:51.734Z,101911.80
2018-08-19T02:00:20.987Z,101910.73
2018-08-19T02:03:02.159Z,101906.41
2018-08-19T02:05:31.520Z,101896.77
2018-08-19T02:08:02.458Z,101896.20
2018-08-19T02:10:33.303Z,101892.80
2018-08-19T02:13:03.219Z,101896.69
2018-08-19T02:15:33.412Z,101892.52
2018-08-19T02:18:04.234Z,101897.05
2018-08-19T02:20:40.315Z,101903.67
2018-08-19T02:23:11.433Z,101903.78
2018-08-19T02:25:44.192Z,101898.95
2018-08-19T02:28:14.674Z,101905.02
2018-08-19T02:31:01.987Z,101904.83
2018-08-19T02:33:34.400Z,101903.12
2018-08-19T02:36:05.524Z,101897.40
2018-08-19T02:38:35.571Z,101904.41
2018-08-19T02:41:05.795Z,101897.97
2018-08-19T02:43:37.627Z,101903.21
2018-08-19T02:46:06.988Z,101903.67
2018-08-19T02:48:47.419Z,101895.35
2018-08-19T02:51:17.899Z,101902.32
2018-08-19T02:53:48.306Z,101899.21
2018-08-19T02:56:18.450Z,101893.73
2018-08-19T02:58:48.464Z,101898.89
2018-08-19T03:01:18.732Z,101893.61
2018-08-19T03:03:48.040Z,101894.05
2018-08-19T03:06:17.345Z,101892.41
2018-08-19T03:08:56.584Z,101897.11
2018-08-19T03:11:26.940Z,101890.20
2018-08-19T03:13:57.111Z,101892.28
2018-08-19T03:16:26.382Z,101897.24
2018-08-19T03:18:55.690Z,101899.09
2018-08-19T03:21:25.482Z,101891.27
2018-08-19T03:23:54.845Z,101897.85
2018-08-19T03:26:24.163Z,101886.89
2018-08-19T03:28:53.440Z,101882.92
2018-08-19T03:31:22.772Z,101883.26
2018-08-19T03:33:52.040Z,101881.48
2018-08-19T03:36:21.373Z,101881.14
2018-08-19T03:38:50.637Z,101881.00
2018-08-19T03:41:19.949Z,101881.36
2018-08-19T03:43:54.526Z,101876.39
2018-08-19T03:46:23.756Z,101874.32
2018-08-19T03:48:53.042Z,101880.61
2018-08-19T03:51:22.339Z,101872.58
2018-08-19T03:53:51.793Z,101874.09
2018-08-19T03:56:27.696Z,101873.98
2018-08-19T03:58:58.607Z,101872.82
2018-08-19T04:01:42.985Z,101871.63
2018-08-19T04:04:14.639Z,101874.70
2018-08-19T04:06:44.423Z,101878.92
2018-08-19T04:09:13.758Z,101879.11
2018-08-19T04:11:43.063Z,101874.39
2018-08-19T04:14:28.578Z,101877.23
2018-08-19T04:16:59.743Z,101875.31
2018-08-19T04:19:29.731Z,101873.36
2018-08-19T04:22:01.979Z,101873.67
2018-08-19T04:24:31.927Z,101883.22
2018-08-19T04:27:08.346Z,101884.37
2018-08-19T04:29:38.108Z,101882.78
2018-08-19T04:32:16.374Z,101884.80
2018-08-19T04:34:46.073Z,101885.75
2018-08-19T04:37:15.479Z,101882.68
2018-08-19T04:39:46.727Z,101886.19
2018-08-19T04:42:20.005Z,101887.55
2018-08-19T04:44:49.255Z,101888.04
2018-08-19T04:47:31.149Z,101887.47
2018-08-19T04:50:00.975Z,101892.59
2018-08-19T04:52:32.192Z,101888.20
2018-08-19T04:55:02.098Z,101894.24
2018-08-19T04:57:32.026Z,101895.88
2018-08-19T05:00:01.470Z,101887.14
2018-08-19T05:02:30.763Z,101890.64
2018-08-19T05:05:00.055Z,101897.70
2018-08-19T05:07:29.531Z,101892.88
2018-08-19T05:09:59.166Z,101894.09
2018-08-19T05:12:28.472Z,101899.72
2018-08-19T05:14:58.384Z,101900.31
2018-08-19T05:17:27.777Z,101897.61
2018-08-19T05:20:16.374Z,101897.38
2018-08-19T05:22:45.706Z,101895.20
2018-08-19T05:25:14.998Z,101897.58
2018-08-19T05:27:45.881Z,101899.17
2018-08-19T05:30:15.385Z,101902.39
2018-08-19T05:32:48.791Z,101897.66
2018-08-19T05:35:18.156Z,101899.24
2018-08-19T05:37:47.518Z,101900.70
2018-08-19T05:40:16.854Z,101894.73
2018-08-19T05:42:46.235Z,101893.80
2018-08-19T05:45:16.561Z,101897.02
2018-08-19T05:48:01.733Z,101895.16
2018-08-19T05:50:31.049Z,101896.09
2018-08-19T05:53:01.443Z,101888.50
2018-08-19T05:55:30.956Z,101891.33
2018-08-19T05:58:00.247Z,101896.73
2018-08-19T06:00:29.548Z,101888.38
2018-08-19T06:03:00.966Z,101890.52
2018-08-19T06:05:30.626Z,101887.91
2018-08-19T06:08:08.043Z,101893.35
2018-08-19T06:10:37.313Z,101892.77
2018-08-19T06:13:07.855Z,101895.45
2018-08-19T06:15:37.340Z,101897.81
2018-08-19T06:18:06.864Z,101897.22
2018-08-19T06:20:36.169Z,101893.78
2018-08-19T06:23:05.536Z,101885.71
2018-08-19T06:25:34.883Z,101883.70
2018-08-19T06:28:04.166Z,101891.30
2018-08-19T06:30:33.607Z,101894.85
2018-08-19T06:33:02.887Z,101888.62
2018-08-19T06:35:32.279Z,101895.50
2018-08-19T06:38:01.663Z,101897.03
2018-08-19T06:40:30.999Z,101893.52
2018-08-19T06:43:00.351Z,101898.78
2018-08-19T06:45:29.699Z,101900.73
2018-08-19T06:47:59.067Z,101901.45
2018-08-19T06:50:32.434Z,101907.25
2018-08-19T06:53:01.747Z,101900.05
2018-08-19T06:55:31.054Z,101896.39
2018-08-19T06:58:01.022Z,101897.45
2018-08-19T07:00:31.753Z,101888.09
2018-08-19T07:03:04.188Z,101888.36
2018-08-19T07:05:34.451Z,101890.43
2018-08-19T07:08:03.806Z,101894.72
2018-08-19T07:10:39.606Z,101899.00
2018-08-19T07:13:12.011Z,101887.03
2018-08-19T07:15:42.476Z,101890.17
2018-08-19T07:18:14.626Z,101887.34
2018-08-19T07:20:44.780Z,101890.38
2018-08-19T07:23:14.381Z,101884.95
2018-08-19T07:25:44.846Z,101889.83
2018-08-19T07:28:16.348Z,101890.79
2018-08-19T07:30:45.695Z,101885.14
2018-08-19T07:33:15.351Z,101888.47
2018-08-19T07:35:44.666Z,101892.05
2018-08-19T07:38:13.964Z,101879.73
2018-08-19T07:40:43.251Z,101888.78
2018-08-19T07:43:12.583Z,101875.73
2018-08-19T07:45:41.960Z,101877.43
2018-08-19T07:48:11.252Z,101876.58
2018-08-19T07:50:41.114Z,101885.51
2018-08-19T07:53:11.527Z,101880.52
2018-08-19T07:55:40.815Z,101882.86
2018-08-19T07:58:10.140Z,101880.62
2018-08-19T08:00:40.244Z,101874.91
2018-08-19T08:03:09.995Z,101872.66
2018-08-19T08:05:44.841Z,101873.59
2018-08-19T08:08:14.148Z,101873.86
2018-08-19T08:10:43.578Z,101866.27
2018-08-19T08:13:13.886Z,101864.64
2018-08-19T08:15:48.577Z,101873.11
2018-08-19T08:18:17.999Z,101865.02
2018-08-19T08:20:47.347Z,101867.23
2018-08-19T08:23:25.001Z,101872.02
2018-08-19T08:25:54.532Z,101868.09
2018-08-19T08:28:23.970Z,101872.00
2018-08-19T08:30:53.620Z,101866.67
2018-08-19T08:33:22.938Z,101872.41
2018-08-19T08:35:55.447Z,101863.86
2018-08-19T08:38:24.780Z,101856.25
2018-08-19T08:40:54.301Z,101863.84
2018-08-19T08:43:23.803Z,101858.69
2018-08-19T08:45:55.806Z,101854.74
2018-08-19T08:48:25.235Z,101864.33
2018-08-19T08:50:54.549Z,101861.93
2018-08-19T08:53:29.054Z,101852.18
2018-08-19T08:55:58.456Z,101855.96
2018-08-19T08:58:27.757Z,101853.47
2018-08-19T09:00:57.400Z,101854.92
2018-08-19T09:03:26.731Z,101847.96
2018-08-19T09:05:56.128Z,101851.71
2018-08-19T09:08:25.636Z,101851.16
2018-08-19T09:10:55.141Z,101847.84
2018-08-19T09:13:24.628Z,101848.14
2018-08-19T09:15:54.940Z,101835.66
2018-08-19T09:18:24.235Z,101843.81
2018-08-19T09:20:53.666Z,101845.42
2018-08-19T09:23:23.352Z,101835.94
2018-08-19T09:25:52.809Z,101840.61
2018-08-19T09:28:22.532Z,101824.10
2018-08-19T09:30:51.892Z,101820.52
2018-08-19T09:33:21.205Z,101825.53
2018-08-19T09:35:50.532Z,101819.48
2018-08-19T09:38:22.550Z,101816.34
2018-08-19T09:40:51.987Z,101818.14
2018-08-19T09:43:21.340Z,101819.61
2018-08-19T09:45:50.702Z,101821.94
2018-08-19T09:48:20.057Z,101818.29
2018-08-19T09:50:49.349Z,101812.09
2018-08-19T09:53:18.650Z,101821.39
2018-08-19T09:55:55.430Z,101813.84
2018-08-19T09:58:24.846Z,101809.06
2018-08-19T10:00:59.436Z,101810.34
2018-08-19T10:03:30.739Z,101806.09
2018-08-19T10:06:00.104Z,101808.62
2018-08-19T10:08:29.433Z,101804.31
2018-08-19T10:10:58.859Z,101802.27
2018-08-19T10:13:28.227Z,101801.14
2018-08-19T10:15:57.644Z,101796.45
2018-08-19T10:18:27.220Z,101792.21
2018-08-19T10:20:57.679Z,101783.18
2018-08-19T10:23:27.039Z,101781.91
2018-08-19T10:25:56.547Z,101770.64
2018-08-19T10:28:25.824Z,101768.66
2018-08-19T10:30:58.990Z,101763.81
2018-08-19T10:33:28.604Z,101767.91
2018-08-19T10:36:02.113Z,101775.08
2018-08-19T10:38:31.515Z,101754.68
2018-08-19T10:41:06.284Z,101757.55
2018-08-19T10:43:35.686Z,101750.76
2018-08-19T10:46:05.120Z,101745.92
2018-08-19T10:48:34.458Z,101747.19
2018-08-19T10:51:04.090Z,101747.23
2018-08-19T10:53:33.642Z,101730.59
2018-08-19T10:56:03.892Z,101740.99
2018-08-19T10:58:33.437Z,101736.18
2018-08-19T11:01:02.708Z,101729.27
2018-08-19T11:03:32.340Z,101732.12
2018-08-19T11:06:01.926Z,101720.04
2018-08-19T11:08:31.268Z,101713.67
2018-08-19T11:11:00.948Z,101711.70
2018-08-19T11:13:30.343Z,101707.09
2018-08-19T11:15:59.707Z,101700.02
2018-08-19T11:18:37.635Z,101695.33
2018-08-19T11:21:09.006Z,101686.50
2018-08-19T11:23:40.995Z,101684.92
2018-08-19T11:26:11.343Z,101685.28
2018-08-19T11:28:58.182Z,101683.88
2018-08-19T11:31:30.746Z,101681.30
2018-08-19T11:34:04.595Z,101674.89
2018-08-19T11:36:39.262Z,101669.17
2018-08-19T11:39:10.652Z,101672.48
2018-08-19T11:41:40.147Z,101667.17
2018-08-19T11:44:12.096Z,101654.95
2018-08-19T11:46:41.500Z,101672.73
2018-08-19T11:49:12.093Z,101661.99
2018-08-19T11:51:50.608Z,101658.90
2018-08-19T11:54:20.856Z,101657.16
2018-08-19T11:56:57.807Z,101666.20
2018-08-19T11:59:32.528Z,101649.41
2018-08-19T12:02:02.229Z,101648.32
2018-08-19T12:04:31.567Z,101640.16
2018-08-19T12:07:00.914Z,101639.88
2018-08-19T12:09:30.509Z,101643.72
2018-08-19T12:11:59.922Z,101639.80
2018-08-19T12:14:32.943Z,101635.75
2018-08-19T12:17:04.871Z,101628.30
2018-08-19T12:19:35.092Z,101624.51
2018-08-19T12:22:05.491Z,101625.33
2018-08-19T12:24:47.625Z,101611.00
2018-08-19T12:27:19.467Z,101614.16
2018-08-19T12:29:48.789Z,101612.20
2018-08-19T12:32:24.719Z,101612.91
2018-08-19T12:34:55.498Z,101601.55
2018-08-19T12:37:26.197Z,101596.78
2018-08-19T12:39:56.401Z,101600.34
2018-08-19T12:42:26.311Z,101593.41
2018-08-19T12:45:06.495Z,101589.13
2018-08-19T12:47:36.843Z,101590.73
2018-08-19T12:50:13.397Z,101582.67
2018-08-19T12:52:43.382Z,101577.11
2018-08-19T12:55:16.166Z,101576.00
2018-08-19T12:57:46.011Z,101572.66
2018-08-19T13:00:32.722Z,101569.03
2018-08-19T13:03:02.438Z,101565.34
2018-08-19T13:05:32.465Z,101556.99
2018-08-19T13:08:02.513Z,101557.35
2018-08-19T13:10:37.811Z,101557.94
2018-08-19T13:13:09.984Z,101561.73
2018-08-19T13:15:39.400Z,101557.95
2018-08-19T13:18:09.442Z,101543.45
2018-08-19T13:20:39.158Z,101539.66
2018-08-19T13:23:08.637Z,101535.42
2018-08-19T13:25:38.045Z,101528.91
2018-08-19T13:28:07.448Z,101532.41
2018-08-19T13:30:36.815Z,101518.11
2018-08-19T13:33:06.232Z,101518.11
2018-08-19T13:35:35.862Z,101506.36
2018-08-19T13:38:05.623Z,101519.21
2018-08-19T13:40:34.983Z,101502.92
2018-08-19T13:43:04.401Z,101494.66
2018-08-19T13:45:33.752Z,101500.50
2018-08-19T13:48:03.122Z,101498.00
2018-08-19T13:50:32.504Z,101496.05
2018-08-19T13:53:01.843Z,101499.92
2018-08-19T13:55:31.222Z,101489.23
2018-08-19T13:58:00.994Z,101482.13
2018-08-19T14:00:33.366Z,101486.45
2018-08-19T14:03:02.817Z,101485.84
2018-08-19T14:05:32.202Z,101478.98
2018-08-19T14:08:01.595Z,101476.16
2018-08-19T14:10:31.351Z,101472.25
2018-08-19T14:13:00.713Z,101462.19
2018-08-19T14:15:30.021Z,101460.77
2018-08-19T14:17:59.458Z,101461.63
2018-08-19T14:20:28.861Z,101465.16
2018-08-19T14:22:58.299Z,101474.93
2018-08-19T14:25:27.995Z,101469.20
2018-08-19T14:27:57.349Z,101463.31
2018-08-19T14:30:26.756Z,101461.83
2018-08-19T14:32:56.211Z,101452.11
2018-08-19T14:35:25.576Z,101455.73
2018-08-19T14:37:54.987Z,101446.23
2018-08-19T14:40:24.753Z,101444.27
2018-08-19T14:42:54.067Z,101435.06
2018-08-19T14:45:23.456Z,101433.07
2018-08-19T14:47:52.891Z,101430.02
2018-08-19T14:50:22.262Z,101428.34
2018-08-19T14:52:51.575Z,101420.80
2018-08-19T14:55:20.929Z,101422.47
2018-08-19T14:57:50.259Z,101416.60
2018-08-19T15:00:19.603Z,101416.28
2018-08-19T15:02:49.486Z,101408.47
2018-08-19T15:05:20.626Z,101416.58
2018-08-19T15:07:50.550Z,101413.37
2018-08-19T15:10:24.332Z,101412.90
2018-08-19T15:12:54.556Z,101402.87
2018-08-19T15:15:23.910Z,101398.69
2018-08-19T15:18:00.495Z,101404.28
2018-08-19T15:20:34.234Z,101395.33
2018-08-19T15:23:21.430Z,101398.67
2018-08-19T15:25:50.676Z,101395.89
2018-08-19T15:28:19.948Z,101394.20
2018-08-19T15:30:49.334Z,101394.22
2018-08-19T15:33:18.635Z,101391.37
2018-08-19T15:35:47.961Z,101394.46
2018-08-19T15:38:17.474Z,101395.05
2018-08-19T15:40:49.267Z,101391.16
2018-08-19T15:43:19.002Z,101383.59
2018-08-19T15:45:48.333Z,101384.41
2018-08-19T15:48:17.750Z,101373.22
2018-08-19T15:50:47.126Z,101380.25
2018-08-19T15:53:18.694Z,101370.75
2018-08-19T15:55:48.299Z,101375.73
2018-08-19T15:58:17.626Z,101377.99
2018-08-19T16:00:46.963Z,101369.86
2018-08-19T16:03:16.335Z,101369.88
2018-08-19T16:05:45.806Z,101372.13
2018-08-19T16:08:15.098Z,101373.84
2018-08-19T16:10:44.574Z,101360.70
2018-08-19T16:13:14.002Z,101362.66
2018-08-19T16:15:43.333Z,101369.08
2018-08-19T16:18:12.700Z,101373.28
2018-08-19T16:20:44.952Z,101371.56
2018-08-19T16:23:14.373Z,101367.92
2018-08-19T16:25:43.750Z,101359.83
2018-08-19T16:28:13.103Z,101356.75
2018-08-19T16:30:42.639Z,101363.74
2018-08-19T16:33:12.106Z,101362.63
2018-08-19T16:35:41.597Z,101357.91
2018-08-19T16:38:11.508Z,101358.16
2018-08-19T16:40:40.872Z,101350.89
2018-08-19T16:43:10.189Z,101355.64
2018-08-19T16:45:39.534Z,101357.88
2018-08-19T16:48:09.558Z,101355.37
2018-08-19T16:50:38.961Z,101357.88
2018-08-19T16:53:08.316Z,101353.64
2018-08-19T16:55:37.761Z,101354.75
2018-08-19T16:58:07.138Z,101350.56
2018-08-19T17:00:36.564Z,101353.09
2018-08-19T17:03:26.638Z,101345.00
2018-08-19T17:05:56.544Z,101351.92
2018-08-19T17:08:25.978Z,101349.17
2018-08-19T17:10:55.283Z,101351.87
2018-08-19T17:13:24.740Z,101345.13
2018-08-19T17:15:54.250Z,101346.05
2018-08-19T17:18:23.583Z,101347.22
2018-08-19T17:20:53.214Z,101344.38
2018-08-19T17:23:24.017Z,101340.88
2018-08-19T17:25:53.385Z,101343.98
2018-08-19T17:28:25.187Z,101344.78
2018-08-19T17:30:55.483Z,101339.79
2018-08-19T17:33:28.743Z,101342.08
2018-08-19T17:35:58.966Z,101339.00
2018-08-19T17:38:31.678Z,101340.14
2018-08-19T17:41:01.343Z,101343.14
2018-08-19T17:43:39.660Z,101338.34
2018-08-19T17:46:12.220Z,101341.09
2018-08-19T17:48:42.773Z,101340.38
2018-08-19T17:51:30.518Z,101346.14
2018-08-19T17:54:00.076Z,101342.64
2018-08-19T17:56:29.857Z,101340.86
2018-08-19T17:59:00.314Z,101346.47
2018-08-19T18:01:29.745Z,101342.64
2018-08-19T18:03:59.111Z,101347.66
2018-08-19T18:06:28.590Z,101352.70
2018-08-19T18:08:57.955Z,101357.70
2018-08-19T18:11:27.753Z,101347.62
2018-08-19T18:14:04.145Z,101353.50
2018-08-19T18:16:33.473Z,101351.31
2018-08-19T18:19:03.777Z,101354.33
2018-08-19T18:21:37.740Z,101351.16
2018-08-19T18:24:07.482Z,101360.22
2018-08-19T18:26:36.844Z,101367.92
2018-08-19T18:29:06.725Z,101362.06
2018-08-19T18:31:36.062Z,101359.57
2018-08-19T18:34:08.662Z,101362.25
2018-08-19T18:36:37.981Z,101369.38
2018-08-19T18:39:10.480Z,101362.37
2018-08-19T18:41:43.720Z,101361.58
2018-08-19T18:44:14.273Z,101365.67
2018-08-19T18:46:43.608Z,101366.04
2018-08-19T18:49:15.562Z,101370.38
2018-08-19T18:51:47.281Z,101375.00
2018-08-19T18:54:32.799Z,101380.63
2018-08-19T18:57:08.470Z,101383.11
2018-08-19T18:59:43.423Z,101379.48
2018-08-19T19:02:12.801Z,101386.41
2018-08-19T19:04:42.148Z,101379.97
2018-08-19T19:07:11.618Z,101381.39
2018-08-19T19:09:50.076Z,101384.09
2018-08-19T19:12:23.376Z,101383.44
2018-08-19T19:14:52.804Z,101388.21
2018-08-19T19:17:22.147Z,101387.39
2018-08-19T19:19:52.009Z,101383.44
2018-08-19T19:22:21.421Z,101384.31
2018-08-19T19:24:53.039Z,101386.23
2018-08-19T19:27:22.540Z,101387.76
2018-08-19T19:29:57.038Z,101381.23
2018-08-19T19:32:26.420Z,101374.08
2018-08-19T19:34:56.207Z,101375.84
2018-08-19T19:37:25.756Z,101377.36
2018-08-19T19:40:00.359Z,101379.17
2018-08-19T19:42:29.917Z,101378.63
2018-08-19T19:44:59.584Z,101372.72
2018-08-19T19:47:29.070Z,101372.09
2018-08-19T19:49:59.586Z,101370.00
2018-08-19T19:52:29.714Z,101367.52
2018-08-19T19:54:59.366Z,101365.05
2018-08-19T19:57:29.122Z,101365.55
2018-08-19T19:59:58.674Z,101366.34
2018-08-19T20:02:29.795Z,101365.45
2018-08-19T20:04:59.890Z,101367.04
2018-08-19T20:07:29.582Z,101370.95
2018-08-19T20:09:59.116Z,101371.79
2018-08-19T20:12:29.793Z,101373.27
2018-08-19T20:15:01.455Z,101376.05
2018-08-19T20:17:30.908Z,101375.45
2018-08-19T20:20:01.097Z,101377.86
2018-08-19T20:22:30.764Z,101375.94
2018-08-19T20:25:00.120Z,101384.85
2018-08-19T20:27:29.926Z,101388.82
2018-08-19T20:29:59.245Z,101392.65
2018-08-19T20:32:28.697Z,101392.87
2018-08-19T20:34:58.072Z,101397.19
2018-08-19T20:37:28.932Z,101404.11
2018-08-19T20:39:58.456Z,101400.45
2018-08-19T20:42:28.221Z,101399.31
2018-08-19T20:44:57.794Z,101396.78
2018-08-19T20:47:27.132Z,101395.64
2018-08-19T20:49:56.808Z,101403.95
2018-08-19T20:52:43.046Z,101403.08
2018-08-19T20:55:13.771Z,101405.06
2018-08-19T20:57:44.676Z,101400.78
2018-08-19T21:00:14.110Z,101406.66
2018-08-19T21:02:43.456Z,101399.52
2018-08-19T21:05:13.058Z,101402.09
2018-08-19T21:07:44.303Z,101407.39
2018-08-19T21:10:13.777Z,101403.63
2018-08-19T21:12:43.118Z,101404.91
2018-08-19T21:15:12.427Z,101396.84
2018-08-19T21:17:41.829Z,101397.69
2018-08-19T21:20:11.170Z,101401.02
2018-08-19T21:22:41.041Z,101399.87
2018-08-19T21:25:10.709Z,101401.69
2018-08-19T21:27:40.587Z,101401.97
2018-08-19T21:30:10.037Z,101400.58
2018-08-19T21:32:39.456Z,101402.70
2018-08-19T21:35:09.728Z,101398.80
2018-08-19T21:37:39.255Z,101397.34
2018-08-19T21:40:08.649Z,101392.80
2018-08-19T21:42:50.955Z,101397.49
2018-08-19T21:45:20.361Z,101400.44
2018-08-19T21:47:50.030Z,101400.50
2018-08-19T21:50:19.508Z,101400.00
2018-08-19T21:53:10.424Z,101400.13
2018-08-19T21:55:41.019Z,101396.41
2018-08-19T21:58:11.090Z,101397.37
2018-08-19T22:01:03.452Z,101389.13
2018-08-19T22:03:38.095Z,101391.72
2018-08-19T22:06:09.102Z,101396.55
2018-08-19T22:08:38.443Z,101397.45
2018-08-19T22:11:07.742Z,101396.52
2018-08-19T22:13:37.551Z,101391.37
2018-08-19T22:16:07.432Z,101393.61
2018-08-19T22:18:36.703Z,101391.95
2018-08-19T22:21:23.781Z,101386.03
2018-08-19T22:23:56.646Z,101389.95
2018-08-19T22:26:25.935Z,101377.36
2018-08-19T22:29:11.752Z,101379.82
2018-08-19T22:31:41.138Z,101377.59
2018-08-19T22:34:10.402Z,101382.66
2018-08-19T22:36:39.702Z,101380.36
2018-08-19T22:39:11.140Z,101379.83
2018-08-19T22:41:40.647Z,101373.20
2018-08-19T22:44:10.043Z,101369.67
2018-08-19T22:46:39.495Z,101365.01
2018-08-19T22:49:09.080Z,101364.32
2018-08-19T22:51:38.812Z,101363.38
2018-08-19T22:54:08.870Z,101360.16
2018-08-19T22:56:38.338Z,101361.53
2018-08-19T22:59:07.747Z,101362.37
2018-08-19T23:01:42.359Z,101359.62
2018-08-19T23:04:11.692Z,101357.70
2018-08-19T23:06:41.377Z,101360.31
2018-08-19T23:09:10.870Z,101362.08
2018-08-19T23:11:45.546Z,101361.53
2018-08-19T23:14:31.774Z,101356.94
2018-08-19T23:17:01.410Z,101353.09
2018-08-19T23:19:30.754Z,101354.17
2018-08-19T23:22:00.200Z,101351.18
2018-08-19T23:24:29.830Z,101353.25
2018-08-19T23:26:59.434Z,101347.27
2018-08-19T23:29:29.994Z,101354.70
2018-08-19T23:31:59.534Z,101352.31
2018-08-19T23:34:29.007Z,101341.35
2018-08-19T23:36:58.448Z,101338.03
2018-08-19T23:39:27.866Z,101335.13
2018-08-19T23:41:57.563Z,101337.59
2018-08-19T23:44:26.982Z,101343.11
2018-08-19T23:46:56.427Z,101345.20
2018-08-19T23:49:25.846Z,101341.49
2018-08-19T23:51:55.324Z,101347.56
2018-08-19T23:54:24.828Z,101349.10
2018-08-19T23:56:54.147Z,101344.19
2018-08-19T23:59:27.580Z,101340.52
